Time;durP1;ratioP1;P1;durP2;ratioP2;P2;SDS_P1;SDS_P2;PMS_P1;PMS_P2;Temp;Humidity;BMP_temperature;BMP_pressure;BME280_temperature;BME280_humidity;BME280_pressure;Samples;Min_cycle;Max_cycle;Signal;HPM_P1;HPM_P2
2023/12/02 00:00:32;;;;;;;29.47;13.50;;;-4.80;99.90;;;;;;5066773;28;20289;-53
2023/12/02 00:02:58;;;;;;;35.70;14.97;;;-4.80;99.90;;;;;;5062884;28;20516;-56
2023/12/02 00:05:23;;;;;;;25.23;14.70;;;-4.70;99.90;;;;;;5067278;28;20186;-52
2023/12/02 00:07:49;;;;;;;23.47;12.13;;;-4.80;99.90;;;;;;5063607;28;20405;-56
2023/12/02 00:10:14;;;;;;;23.83;13.37;;;-4.90;99.90;;;;;;5062750;28;20190;-54
2023/12/02 00:12:40;;;;;;;28.77;14.90;;;-4.80;99.90;;;;;;5065168;28;20171;-56
2023/12/02 00:15:07;;;;;;;28.27;14.50;;;-4.80;99.90;;;;;;5059971;28;20428;-53
2023/12/02 00:17:33;;;;;;;31.23;14.60;;;-4.70;99.90;;;;;;5065965;28;20238;-55
2023/12/02 00:19:58;;;;;;;27.97;13.97;;;-4.80;99.90;;;;;;5061645;28;20444;-54
2023/12/02 00:22:24;;;;;;;25.53;13.10;;;-4.70;99.90;;;;;;5066673;28;20408;-56
2023/12/02 00:24:50;;;;;;;24.90;14.80;;;-4.70;99.90;;;;;;5063116;28;20514;-53
2023/12/02 00:27:17;;;;;;;27.30;14.10;;;-4.80;99.90;;;;;;5066490;28;20248;-55
2023/12/02 00:29:43;;;;;;;23.53;12.93;;;-4.80;99.90;;;;;;5064767;28;20198;-55
2023/12/02 00:32:08;;;;;;;32.03;15.93;;;-4.80;99.90;;;;;;5051704;28;20734;-55
2023/12/02 00:34:34;;;;;;;29.10;14.43;;;-4.80;99.90;;;;;;5065695;28;20416;-55
2023/12/02 00:37:00;;;;;;;31.50;14.33;;;-4.90;99.90;;;;;;5060867;28;20262;-56
2023/12/02 00:39:25;;;;;;;26.43;14.70;;;-4.80;99.90;;;;;;5056052;28;20244;-57
2023/12/02 00:41:51;;;;;;;28.67;15.33;;;-4.80;99.90;;;;;;5067519;28;20653;-58
2023/12/02 00:44:16;;;;;;;22.93;12.10;;;-4.90;99.90;;;;;;5061719;28;20182;-55
2023/12/02 00:46:42;;;;;;;28.83;14.67;;;-4.80;99.90;;;;;;5064528;28;20520;-54
2023/12/02 00:49:07;;;;;;;37.27;16.27;;;-4.90;99.90;;;;;;5063955;28;20186;-57
2023/12/02 00:51:33;;;;;;;32.17;16.90;;;-4.80;99.90;;;;;;5063961;28;20215;-55
2023/12/02 00:53:59;;;;;;;28.13;12.97;;;-4.90;99.90;;;;;;5058301;28;20174;-49
2023/12/02 00:56:24;;;;;;;32.10;14.27;;;-4.90;99.90;;;;;;5058083;28;20174;-49
2023/12/02 00:58:50;;;;;;;30.03;16.13;;;-4.90;99.90;;;;;;5064480;28;20242;-54
2023/12/02 01:01:15;;;;;;;24.93;12.43;;;-5.10;99.90;;;;;;5061061;28;20185;-55
2023/12/02 01:03:41;;;;;;;29.90;15.37;;;-5.00;99.90;;;;;;5063967;28;20219;-52
2023/12/02 01:06:07;;;;;;;22.23;13.83;;;-5.00;99.90;;;;;;5059790;28;20247;-55
2023/12/02 01:08:32;;;;;;;25.60;12.20;;;-5.00;99.90;;;;;;5063692;28;20520;-54
2023/12/02 01:10:58;;;;;;;23.63;13.70;;;-5.20;99.90;;;;;;5066230;28;20413;-60
2023/12/02 01:13:24;;;;;;;30.30;12.40;;;-5.30;99.90;;;;;;5063873;28;20658;-59
2023/12/02 01:15:49;;;;;;;22.70;12.90;;;-5.50;99.90;;;;;;5067070;28;20159;-53
2023/12/02 01:18:15;;;;;;;26.90;12.70;;;-5.40;99.90;;;;;;5060894;28;20649;-54
2023/12/02 01:20:40;;;;;;;25.63;12.53;;;-5.40;99.90;;;;;;5063651;28;20294;-56
2023/12/02 01:23:06;;;;;;;25.40;12.33;;;-5.30;99.90;;;;;;5045230;28;20178;-55
2023/12/02 01:25:31;;;;;;;26.50;13.97;;;-5.30;99.90;;;;;;5063110;28;20300;-57
2023/12/02 01:27:57;;;;;;;26.47;13.77;;;-5.20;99.90;;;;;;5065721;28;20245;-53
2023/12/02 01:30:22;;;;;;;23.90;11.83;;;-5.30;99.90;;;;;;5063225;28;20240;-53
2023/12/02 01:32:48;;;;;;;27.83;13.47;;;-5.40;99.90;;;;;;5066725;28;20545;-57
2023/12/02 01:35:14;;;;;;;29.23;13.77;;;-5.40;99.90;;;;;;5060760;28;20212;-55
2023/12/02 01:37:40;;;;;;;26.57;13.57;;;-5.40;99.90;;;;;;5057454;28;20470;-57
2023/12/02 01:40:07;;;;;;;25.73;12.83;;;-5.30;99.90;;;;;;5067851;28;20249;-55
2023/12/02 01:42:33;;;;;;;28.30;13.87;;;-5.30;99.90;;;;;;5062432;28;20175;-57
2023/12/02 01:44:59;;;;;;;24.53;13.80;;;-5.30;99.90;;;;;;5059359;28;20888;-54
2023/12/02 01:47:25;;;;;;;23.53;12.77;;;-5.30;99.90;;;;;;5065437;28;20227;-55
2023/12/02 01:49:51;;;;;;;34.93;14.20;;;-5.40;99.90;;;;;;5058987;28;20417;-55
2023/12/02 01:52:17;;;;;;;29.47;16.20;;;-5.40;99.90;;;;;;5059609;28;20475;-54
2023/12/02 01:54:43;;;;;;;32.07;14.87;;;-5.40;99.90;;;;;;5059567;28;20405;-56
2023/12/02 01:57:10;;;;;;;27.90;14.33;;;-5.40;99.90;;;;;;5051871;28;20443;-57
2023/12/02 01:59:44;;;;;;;32.97;15.60;;;-5.40;99.90;;;;;;5062078;28;20434;-57
2023/12/02 02:02:09;;;;;;;36.87;17.50;;;-5.60;99.90;;;;;;5060670;28;20431;-54
2023/12/02 02:04:35;;;;;;;43.33;14.93;;;-5.70;99.90;;;;;;5063702;28;20892;-58
2023/12/02 02:07:01;;;;;;;43.03;17.47;;;-5.50;99.90;;;;;;5059953;28;20667;-59
2023/12/02 02:09:43;;;;;;;38.93;16.63;;;-5.60;99.90;;;;;;5066414;28;20432;-54
2023/12/02 02:12:09;;;;;;;31.03;11.90;;;-5.50;99.90;;;;;;5061784;28;20178;-59
2023/12/02 02:14:35;;;;;;;32.60;15.03;;;-5.40;99.90;;;;;;5066960;28;20420;-54
2023/12/02 02:17:00;;;;;;;33.60;14.70;;;-5.50;99.90;;;;;;5059778;28;20170;-56
2023/12/02 02:19:26;;;;;;;34.37;14.47;;;-5.50;99.90;;;;;;5054144;28;20269;-56
2023/12/02 02:21:53;;;;;;;36.10;15.27;;;-5.50;99.90;;;;;;5061310;28;20175;-59
2023/12/02 02:24:18;;;;;;;26.37;13.87;;;-5.50;99.90;;;;;;5061629;28;20289;-54
2023/12/02 02:26:44;;;;;;;38.20;15.10;;;-5.50;99.90;;;;;;5051415;28;20545;-53
2023/12/02 02:29:09;;;;;;;37.03;15.23;;;-5.50;99.90;;;;;;5045019;28;20200;-57
2023/12/02 02:31:35;;;;;;;32.20;15.70;;;-5.60;99.90;;;;;;5067089;28;20197;-55
2023/12/02 02:34:01;;;;;;;30.57;13.60;;;-5.60;99.90;;;;;;5057104;28;20217;-52
2023/12/02 02:36:26;;;;;;;36.77;16.30;;;-5.70;99.90;;;;;;5061132;28;20182;-55
2023/12/02 02:38:52;;;;;;;32.87;14.37;;;-5.70;99.90;;;;;;5055870;28;20214;-56
2023/12/02 02:41:17;;;;;;;28.23;13.60;;;-5.90;99.90;;;;;;5059417;28;20602;-56
2023/12/02 02:43:43;;;;;;;23.63;11.77;;;-6.10;99.90;;;;;;5058586;28;20170;-56
2023/12/02 02:46:09;;;;;;;24.40;13.13;;;-6.10;99.90;;;;;;5051636;28;20293;-55
2023/12/02 02:48:34;;;;;;;32.43;11.50;;;-6.00;99.90;;;;;;5060933;28;21547;-56
2023/12/02 02:51:00;;;;;;;27.10;14.73;;;-5.90;99.90;;;;;;5060488;28;20588;-57
2023/12/02 02:53:25;;;;;;;20.13;11.77;;;-5.90;99.90;;;;;;5066376;28;20185;-56
2023/12/02 02:55:51;;;;;;;23.03;12.10;;;-5.80;99.90;;;;;;5057644;28;20648;-57
2023/12/02 02:58:16;;;;;;;21.37;13.57;;;-5.80;99.90;;;;;;5068994;28;20200;-56
2023/12/02 03:00:42;;;;;;;26.93;11.40;;;-5.80;99.90;;;;;;5066270;28;20174;-60
2023/12/02 03:03:08;;;;;;;24.83;11.83;;;-5.80;99.90;;;;;;5069042;28;20175;-54
2023/12/02 03:05:33;;;;;;;29.20;14.93;;;-5.90;99.90;;;;;;5067457;28;20212;-52
2023/12/02 03:07:59;;;;;;;27.20;12.53;;;-5.90;99.90;;;;;;5062311;28;20409;-55
2023/12/02 03:10:24;;;;;;;19.77;11.40;;;-5.90;99.90;;;;;;5068184;28;20186;-54
2023/12/02 03:12:50;;;;;;;23.57;11.70;;;-5.90;99.90;;;;;;5064915;28;20170;-57
2023/12/02 03:15:16;;;;;;;33.87;11.60;;;-5.80;99.90;;;;;;5068781;28;20177;-56
2023/12/02 03:17:41;;;;;;;25.97;13.20;;;-5.80;99.90;;;;;;5066230;28;20174;-56
2023/12/02 03:20:07;;;;;;;26.40;13.87;;;-5.90;99.90;;;;;;5061003;28;20199;-55
2023/12/02 03:22:33;;;;;;;22.33;11.90;;;-5.80;99.90;;;;;;5061351;28;20213;-55
2023/12/02 03:24:58;;;;;;;25.43;13.10;;;-5.80;99.90;;;;;;5052340;28;20520;-56
2023/12/02 03:27:24;;;;;;;25.93;11.90;;;-5.90;99.90;;;;;;5051724;28;20159;-55
2023/12/02 03:29:49;;;;;;;27.13;11.70;;;-5.90;99.90;;;;;;5057814;28;20194;-53
2023/12/02 03:32:15;;;;;;;20.87;11.27;;;-5.90;99.90;;;;;;5058253;28;20170;-54
2023/12/02 03:34:40;;;;;;;23.80;11.10;;;-5.90;99.90;;;;;;5054471;28;20254;-53
2023/12/02 03:37:06;;;;;;;27.73;13.60;;;-5.80;99.90;;;;;;5055839;28;20167;-53
2023/12/02 03:39:32;;;;;;;19.67;11.23;;;-5.90;99.90;;;;;;5042752;28;20207;-53
2023/12/02 03:41:57;;;;;;;20.20;10.47;;;-5.90;99.90;;;;;;5043157;28;20237;-54
2023/12/02 03:44:23;;;;;;;29.33;11.77;;;-5.90;99.90;;;;;;5052908;28;20247;-55
2023/12/02 03:46:48;;;;;;;33.43;13.40;;;-6.00;99.90;;;;;;5063037;28;20680;-56
2023/12/02 03:49:14;;;;;;;24.77;11.00;;;-5.90;99.90;;;;;;5051727;28;20310;-55
2023/12/02 03:51:39;;;;;;;25.60;12.87;;;-5.90;99.90;;;;;;5051288;28;20261;-55
2023/12/02 03:54:05;;;;;;;21.10;10.47;;;-5.90;99.90;;;;;;5057783;28;20217;-55
2023/12/02 03:56:31;;;;;;;21.73;11.80;;;-5.80;99.90;;;;;;5056235;28;20250;-53
2023/12/02 03:58:56;;;;;;;20.47;10.07;;;-5.80;99.90;;;;;;5061917;28;20194;-55
2023/12/02 04:01:22;;;;;;;19.57;11.43;;;-5.70;99.90;;;;;;5066986;28;20170;-49
2023/12/02 04:03:48;;;;;;;20.53;10.70;;;-5.70;99.90;;;;;;5053050;28;20175;-53
2023/12/02 04:06:13;;;;;;;21.07;10.10;;;-5.90;99.90;;;;;;5050834;28;20301;-56
2023/12/02 04:08:39;;;;;;;14.53;8.90;;;-6.10;99.90;;;;;;5049525;28;20429;-55
2023/12/02 04:11:06;;;;;;;23.20;10.67;;;-6.10;99.90;;;;;;5058330;28;20175;-56
2023/12/02 04:13:31;;;;;;;20.60;9.17;;;-6.10;99.90;;;;;;5054025;28;20424;-55
2023/12/02 04:15:57;;;;;;;16.00;8.90;;;-6.00;99.90;;;;;;5047685;28;20426;-53
2023/12/02 04:18:23;;;;;;;15.87;10.50;;;-6.00;99.90;;;;;;5056182;28;20320;-54
2023/12/02 04:20:49;;;;;;;16.23;9.10;;;-5.90;99.90;;;;;;5048946;28;20175;-55
2023/12/02 04:23:15;;;;;;;19.97;9.50;;;-5.80;99.90;;;;;;5059148;28;20174;-54
2023/12/02 04:25:41;;;;;;;13.87;8.20;;;-5.70;99.90;;;;;;5050725;28;20940;-54
2023/12/02 04:28:07;;;;;;;16.00;9.27;;;-5.60;99.90;;;;;;5051114;28;20167;-56
2023/12/02 04:30:37;;;;;;;20.07;9.23;;;-5.60;99.90;;;;;;5062132;28;20186;-53
2023/12/02 04:33:03;;;;;;;19.37;10.03;;;-5.60;99.90;;;;;;5048252;28;20535;-55
2023/12/02 04:35:30;;;;;;;14.90;8.37;;;-5.60;99.90;;;;;;5054813;28;20926;-58
2023/12/02 04:37:55;;;;;;;19.00;9.63;;;-5.70;99.90;;;;;;5051750;28;20713;-57
2023/12/02 04:40:21;;;;;;;20.17;8.77;;;-5.90;99.90;;;;;;5053065;28;20482;-55
2023/12/02 04:42:47;;;;;;;17.60;9.37;;;-5.80;99.90;;;;;;5055113;28;20885;-54
2023/12/02 04:45:13;;;;;;;15.13;8.80;;;-5.80;99.90;;;;;;5054824;28;20537;-56
2023/12/02 04:47:38;;;;;;;22.20;8.30;;;-5.80;99.90;;;;;;5038112;28;20241;-58
2023/12/02 04:50:05;;;;;;;17.93;8.13;;;-5.80;99.90;;;;;;5027050;28;20206;-52
2023/12/02 04:52:32;;;;;;;16.40;8.40;;;-5.90;99.90;;;;;;5060202;28;20543;-56
2023/12/02 04:54:57;;;;;;;12.33;6.93;;;-5.90;99.90;;;;;;5056150;28;20429;-56
2023/12/02 04:57:23;;;;;;;14.00;8.57;;;-6.00;99.90;;;;;;5054397;28;20409;-53
2023/12/02 04:59:49;;;;;;;15.23;7.80;;;-6.10;99.90;;;;;;5048511;28;20273;-55
2023/12/02 05:02:18;;;;;;;14.50;7.30;;;-6.00;99.90;;;;;;5052811;28;20213;-57
2023/12/02 05:04:44;;;;;;;18.40;9.10;;;-5.90;99.90;;;;;;5050023;28;20190;-56
2023/12/02 05:07:09;;;;;;;11.30;7.60;;;-5.90;99.90;;;;;;5059979;28;20845;-54
2023/12/02 05:09:36;;;;;;;12.57;6.57;;;-5.90;99.90;;;;;;5051185;28;20190;-58
2023/12/02 05:12:02;;;;;;;15.60;9.13;;;-5.80;99.90;;;;;;5057215;28;20200;-57
2023/12/02 05:14:28;;;;;;;22.00;9.30;;;-5.90;99.90;;;;;;5054131;28;20441;-57
2023/12/02 05:16:53;;;;;;;10.77;6.90;;;-5.80;99.90;;;;;;5049855;28;20508;-54
2023/12/02 05:19:19;;;;;;;18.13;7.80;;;-5.90;99.90;;;;;;5062492;28;20336;-54
2023/12/02 05:21:44;;;;;;;16.30;8.53;;;-6.00;99.90;;;;;;5049791;28;20171;-51
2023/12/02 05:24:10;;;;;;;13.20;7.40;;;-5.90;99.90;;;;;;5062118;28;20196;-55
2023/12/02 05:26:36;;;;;;;12.38;8.30;;;-5.80;99.90;;;;;;5056417;28;20201;-52
2023/12/02 05:29:03;;;;;;;13.70;7.03;;;-5.90;99.90;;;;;;5056048;28;20191;-51
2023/12/02 05:31:28;;;;;;;12.85;9.10;;;-6.00;99.90;;;;;;5049477;28;20277;-54
2023/12/02 05:33:55;;;;;;;16.43;9.23;;;-6.00;99.90;;;;;;5049813;28;20504;-50
2023/12/02 05:36:20;;;;;;;14.80;8.70;;;-6.00;99.90;;;;;;5052967;28;20559;-50
2023/12/02 05:38:46;;;;;;;11.97;8.17;;;-6.00;99.90;;;;;;5049433;28;20459;-55
2023/12/02 05:41:11;;;;;;;11.73;7.17;;;-6.00;99.90;;;;;;5056569;28;20175;-57
2023/12/02 05:43:37;;;;;;;11.03;7.10;;;-5.90;99.90;;;;;;5050500;28;20254;-58
2023/12/02 05:46:02;;;;;;;11.07;6.27;;;-5.90;99.90;;;;;;5049363;28;20245;-53
2023/12/02 05:48:28;;;;;;;13.10;7.23;;;-5.80;99.90;;;;;;5053315;28;20169;-53
2023/12/02 05:50:54;;;;;;;17.40;7.60;;;-5.80;99.90;;;;;;5050740;28;20375;-58
2023/12/02 05:53:19;;;;;;;14.40;6.30;;;-5.70;99.90;;;;;;5041189;28;20597;-57
2023/12/02 05:55:45;;;;;;;14.70;6.67;;;-5.60;99.90;;;;;;5049439;28;20297;-53
2023/12/02 05:58:10;;;;;;;13.67;9.07;;;-5.70;99.90;;;;;;5050059;28;20170;-52
2023/12/02 06:00:36;;;;;;;13.93;6.53;;;-5.70;99.90;;;;;;5062908;23;20652;-63
2023/12/02 06:03:03;;;;;;;10.67;7.27;;;-5.70;99.90;;;;;;5040634;28;20194;-60
2023/12/02 06:05:29;;;;;;;10.37;6.60;;;-5.70;99.90;;;;;;5029526;28;20703;-60
2023/12/02 06:07:54;;;;;;;10.60;6.47;;;-5.60;99.90;;;;;;5026408;28;20437;-62
2023/12/02 06:10:20;;;;;;;13.17;6.50;;;-5.60;99.90;;;;;;5039034;28;20448;-60
2023/12/02 06:12:45;;;;;;;14.40;7.97;;;-5.50;99.90;;;;;;5030269;28;20176;-60
2023/12/02 06:15:11;;;;;;;11.30;6.77;;;-5.50;99.90;;;;;;5029905;28;20209;-60
2023/12/02 06:17:37;;;;;;;14.80;6.80;;;-5.60;99.90;;;;;;5029514;28;20184;-62
2023/12/02 06:20:06;;;;;;;16.50;7.00;;;-5.60;99.90;;;;;;5026414;28;20208;-62
2023/12/02 06:22:35;;;;;;;10.20;5.40;;;-5.40;99.90;;;;;;5030112;28;20426;-58
2023/12/02 06:25:01;;;;;;;11.07;6.63;;;-5.50;99.90;;;;;;5030089;28;20466;-64
2023/12/02 06:27:27;;;;;;;9.73;6.07;;;-5.40;99.90;;;;;;5033297;28;20509;-64
2023/12/02 06:29:52;;;;;;;10.70;7.00;;;-5.30;99.90;;;;;;5033801;28;20556;-62
2023/12/02 06:32:18;;;;;;;12.47;7.00;;;-5.30;99.90;;;;;;5036063;28;20425;-62
2023/12/02 06:34:44;;;;;;;16.03;9.57;;;-5.30;99.90;;;;;;5033311;28;20179;-61
2023/12/02 06:37:09;;;;;;;8.33;6.00;;;-5.50;99.90;;;;;;5033650;28;20421;-61
2023/12/02 06:39:35;;;;;;;7.73;4.70;;;-5.50;99.90;;;;;;5033963;28;20176;-65
2023/12/02 06:42:01;;;;;;;8.33;5.47;;;-5.40;99.90;;;;;;5033910;28;20182;-62
2023/12/02 06:44:26;;;;;;;9.77;5.50;;;-5.40;99.90;;;;;;5033353;28;20650;-61
2023/12/02 06:46:52;;;;;;;8.77;5.60;;;-5.40;99.90;;;;;;5039261;28;20207;-61
2023/12/02 06:49:17;;;;;;;9.87;5.90;;;-5.30;99.90;;;;;;5033351;28;20183;-61
2023/12/02 06:51:44;;;;;;;7.57;6.73;;;-5.50;99.90;;;;;;5039833;28;20183;-63
2023/12/02 06:54:10;;;;;;;8.37;5.77;;;-5.60;99.90;;;;;;5034140;28;20586;-61
2023/12/02 06:56:36;;;;;;;10.67;6.83;;;-5.50;99.90;;;;;;5041586;28;20422;-63
2023/12/02 06:59:02;;;;;;;11.17;6.40;;;-5.50;99.90;;;;;;5033164;28;21148;-62
2023/12/02 07:01:30;;;;;;;11.43;7.32;;;-5.50;99.90;;;;;;5035892;28;20211;-62
2023/12/02 07:03:58;;;;;;;8.10;6.60;;;-5.50;99.90;;;;;;5038247;28;20577;-61
2023/12/02 07:06:24;;;;;;;10.00;5.83;;;-5.50;99.90;;;;;;5037944;28;20520;-64
2023/12/02 07:08:51;;;;;;;10.40;6.10;;;-5.50;99.90;;;;;;5046422;28;20410;-62
2023/12/02 07:11:17;;;;;;;10.00;7.23;;;-5.40;99.90;;;;;;5040164;28;20438;-62
2023/12/02 07:13:43;;;;;;;12.07;5.97;;;-5.50;99.90;;;;;;5038761;28;20463;-63
2023/12/02 07:16:09;;;;;;;13.23;6.10;;;-5.40;99.90;;;;;;5040371;28;20416;-64
2023/12/02 07:18:35;;;;;;;12.87;7.10;;;-5.40;99.90;;;;;;5031854;28;20436;-62
2023/12/02 07:21:00;;;;;;;11.80;6.67;;;-5.40;99.90;;;;;;5038770;28;20433;-62
2023/12/02 07:23:27;;;;;;;14.23;6.43;;;-5.30;99.90;;;;;;5030724;28;20175;-62
2023/12/02 07:25:53;;;;;;;12.70;7.30;;;-5.30;99.90;;;;;;5039495;28;20232;-58
2023/12/02 07:28:19;;;;;;;15.23;7.43;;;-5.20;99.90;;;;;;5038045;28;20480;-62
2023/12/02 07:30:44;;;;;;;11.33;5.30;;;-5.10;99.90;;;;;;5040865;28;20563;-62
2023/12/02 07:33:10;;;;;;;11.63;6.70;;;-5.10;99.90;;;;;;5041670;28;20178;-59
2023/12/02 07:35:35;;;;;;;13.93;6.20;;;-5.00;99.90;;;;;;5031271;28;20654;-60
2023/12/02 07:38:01;;;;;;;17.27;9.20;;;-5.00;99.90;;;;;;5030641;28;20179;-62
2023/12/02 07:40:27;;;;;;;12.13;6.60;;;-4.90;99.90;;;;;;5039105;28;20237;-62
2023/12/02 07:42:53;;;;;;;15.57;6.53;;;-4.80;99.90;;;;;;5012883;28;20676;-63
2023/12/02 07:45:19;;;;;;;9.87;6.57;;;-4.80;99.90;;;;;;4985775;28;20833;-62
2023/12/02 07:47:44;;;;;;;14.57;7.73;;;-4.70;99.90;;;;;;5002685;28;20407;-60
2023/12/02 07:50:10;;;;;;;12.80;7.47;;;-4.70;99.90;;;;;;5034684;28;20573;-62
2023/12/02 07:52:36;;;;;;;14.87;8.60;;;-4.70;99.90;;;;;;5029903;28;20172;-63
2023/12/02 07:55:01;;;;;;;12.13;8.13;;;-4.60;99.90;;;;;;5044156;28;20185;-62
2023/12/02 07:57:27;;;;;;;16.47;8.73;;;-4.80;99.90;;;;;;5032071;28;20193;-63
2023/12/02 07:59:52;;;;;;;8.80;6.40;;;-4.60;99.90;;;;;;5032087;28;20237;-63
2023/12/02 08:02:21;;;;;;;15.83;7.40;;;-4.50;99.90;;;;;;5032192;28;20594;-62
2023/12/02 08:04:47;;;;;;;12.43;7.70;;;-4.40;99.90;;;;;;4994610;28;20638;-61
2023/12/02 08:07:13;;;;;;;14.63;7.87;;;-4.30;99.90;;;;;;5034181;28;20502;-63
2023/12/02 08:09:38;;;;;;;10.07;6.00;;;-4.20;99.90;;;;;;5034868;28;20167;-61
2023/12/02 08:12:04;;;;;;;11.00;5.90;;;-4.30;99.90;;;;;;5040414;28;20183;-61
2023/12/02 08:14:30;;;;;;;12.43;6.97;;;-4.30;99.90;;;;;;5039591;28;20595;-62
2023/12/02 08:16:55;;;;;;;12.07;6.53;;;-4.10;99.90;;;;;;5031640;28;20442;-62
2023/12/02 08:19:21;;;;;;;10.80;6.30;;;-4.00;99.90;;;;;;5039280;28;20171;-63
2023/12/02 08:21:47;;;;;;;12.10;8.23;;;-3.90;99.90;;;;;;5024494;28;20175;-63
2023/12/02 08:24:13;;;;;;;11.70;6.20;;;-3.90;99.90;;;;;;5030373;28;20490;-61
2023/12/02 08:26:38;;;;;;;12.00;7.83;;;-4.00;99.90;;;;;;5042732;28;20194;-59
2023/12/02 08:29:04;;;;;;;16.63;8.60;;;-3.90;99.90;;;;;;5039853;28;20418;-60
2023/12/02 08:31:32;;;;;;;12.50;7.90;;;-4.10;99.90;;;;;;5029870;28;20206;-60
2023/12/02 08:33:57;;;;;;;10.73;6.60;;;-4.10;99.90;;;;;;5040092;28;20175;-65
2023/12/02 08:36:23;;;;;;;12.37;8.07;;;-4.10;99.90;;;;;;5031459;28;20426;-63
2023/12/02 08:38:48;;;;;;;11.23;6.30;;;-3.90;99.90;;;;;;5030895;28;20255;-61
2023/12/02 08:41:14;;;;;;;13.70;7.90;;;-3.70;99.90;;;;;;5036169;28;20594;-62
2023/12/02 08:43:43;;;;;;;14.03;7.80;;;-3.50;99.90;;;;;;5035984;28;20231;-63
2023/12/02 08:46:17;;;;;;;15.17;8.27;;;-3.40;99.90;;;;;;5031304;28;20469;-62
2023/12/02 08:48:43;;;;;;;13.93;8.20;;;-3.50;99.90;;;;;;5015249;28;20504;-61
2023/12/02 08:51:09;;;;;;;19.10;7.70;;;-3.50;99.90;;;;;;5028219;28;20514;-66
2023/12/02 08:53:35;;;;;;;15.93;8.53;;;-3.50;99.90;;;;;;5034255;28;20499;-65
2023/12/02 08:56:01;;;;;;;13.07;7.53;;;-3.50;99.90;;;;;;5029259;28;20263;-61
2023/12/02 08:58:26;;;;;;;12.30;7.57;;;-3.60;99.90;;;;;;5026012;28;20180;-70
2023/12/02 09:00:52;;;;;;;13.43;7.00;;;-3.80;99.90;;;;;;5034329;28;20477;-63
2023/12/02 09:03:18;;;;;;;13.90;7.60;;;-4.00;99.90;;;;;;5025563;28;20669;-62
2023/12/02 09:05:44;;;;;;;10.07;6.43;;;-3.90;99.90;;;;;;5029235;28;20690;-65
2023/12/02 09:08:10;;;;;;;11.50;7.40;;;-3.50;99.90;;;;;;5024470;28;20406;-67
2023/12/02 09:10:36;;;;;;;6.80;5.13;;;-3.50;99.90;;;;;;5025277;28;20484;-65
2023/12/02 09:13:10;;;;;;;14.17;7.50;;;-3.00;99.90;;;;;;5025421;28;20441;-63
2023/12/02 09:15:41;;;;;;;10.40;6.07;;;-2.60;99.90;;;;;;5022772;28;20642;-61
2023/12/02 09:18:10;;;;;;;12.23;6.50;;;-3.40;99.90;;;;;;5024218;28;20453;-59
2023/12/02 09:20:41;;;;;;;10.43;6.53;;;-3.50;99.90;;;;;;5024989;28;20434;-64
2023/12/02 09:23:08;;;;;;;12.83;8.33;;;-3.30;99.90;;;;;;5023390;28;20497;-59
2023/12/02 09:25:38;;;;;;;10.30;6.57;;;-3.10;99.90;;;;;;5022325;28;20459;-59
2023/12/02 09:28:07;;;;;;;11.20;6.70;;;-3.00;99.90;;;;;;5025080;28;20413;-60
2023/12/02 09:30:37;;;;;;;12.40;6.27;;;-2.90;99.90;;;;;;5028683;28;20430;-61
2023/12/02 09:33:06;;;;;;;14.30;7.43;;;-3.10;99.90;;;;;;5030224;28;20770;-58
2023/12/02 09:35:33;;;;;;;17.20;8.53;;;-3.50;99.90;;;;;;5030535;28;20514;-59
2023/12/02 09:38:01;;;;;;;10.23;5.53;;;-3.50;99.90;;;;;;5027662;28;20422;-59
2023/12/02 09:40:37;;;;;;;14.07;6.93;;;-3.30;99.90;;;;;;5025367;28;20438;-67
2023/12/02 09:43:53;;;;;;;12.73;7.47;;;-3.00;99.90;;;;;;5029032;28;20430;-60
2023/12/02 09:46:32;;;;;;;9.30;6.47;;;-2.90;99.90;;;;;;4983963;28;20554;-63
2023/12/02 09:49:22;;;;;;;11.33;7.23;;;-3.20;99.90;;;;;;5036630;28;20421;-64
2023/12/02 09:51:56;;;;;;;11.93;6.80;;;-3.00;99.90;;;;;;5028980;28;20414;-63
2023/12/02 09:54:40;;;;;;;14.73;6.57;;;-3.00;99.90;;;;;;5037702;28;20755;-60
2023/12/02 09:57:20;;;;;;;11.40;7.30;;;-3.00;99.90;;;;;;5035591;28;20414;-60
2023/12/02 10:00:12;;;;;;;15.17;7.30;;;-2.80;99.90;;;;;;5032161;28;20440;-61
2023/12/02 10:03:01;;;;;;;19.53;7.47;;;-2.60;99.90;;;;;;5030562;28;20407;-63
2023/12/02 10:05:32;;;;;;;12.30;7.20;;;-2.50;99.90;;;;;;5047295;28;20946;-61
2023/12/02 10:08:19;;;;;;;20.13;8.97;;;-2.70;99.90;;;;;;5027448;28;20411;-60
2023/12/02 10:11:12;;;;;;;10.40;6.63;;;-2.90;99.90;;;;;;5030755;28;20437;-59
2023/12/02 10:13:52;;;;;;;11.20;6.87;;;-3.00;99.90;;;;;;5041020;28;20411;-60
2023/12/02 10:16:23;;;;;;;15.93;7.80;;;-3.00;99.90;;;;;;5034626;28;20879;-62
2023/12/02 10:18:53;;;;;;;13.93;8.40;;;-2.80;99.90;;;;;;5041904;28;20410;-62
2023/12/02 10:21:20;;;;;;;16.47;7.57;;;-2.70;99.90;;;;;;5033887;28;20440;-61
2023/12/02 10:24:06;;;;;;;11.90;7.60;;;-2.60;99.90;;;;;;5034450;28;20516;-60
2023/12/02 10:26:52;;;;;;;13.67;6.67;;;-2.80;99.90;;;;;;5036148;28;20469;-62
2023/12/02 10:29:40;;;;;;;14.27;8.03;;;-2.80;99.90;;;;;;5030510;28;20419;-64
2023/12/02 10:32:30;;;;;;;8.87;5.90;;;-2.50;99.90;;;;;;5037322;28;20759;-62
2023/12/02 10:35:31;;;;;;;14.60;7.57;;;-2.40;99.90;;;;;;5038266;28;20405;-62
2023/12/02 10:38:26;;;;;;;14.97;7.93;;;-2.40;99.90;;;;;;5042060;28;20414;-62
2023/12/02 10:41:06;;;;;;;10.17;7.00;;;-2.80;99.90;;;;;;5043389;28;20490;-61
2023/12/02 10:43:38;;;;;;;12.17;7.43;;;-2.80;99.90;;;;;;5048940;28;20720;-62
2023/12/02 10:46:05;;;;;;;11.53;6.47;;;-2.70;99.90;;;;;;5035434;28;20591;-62
2023/12/02 10:48:32;;;;;;;12.07;7.10;;;-2.70;99.90;;;;;;5042475;28;20452;-60
2023/12/02 10:50:59;;;;;;;11.23;6.37;;;-2.80;99.90;;;;;;5033774;28;20970;-63
2023/12/02 10:53:29;;;;;;;12.20;6.30;;;-2.70;99.90;;;;;;5042069;28;20417;-59
2023/12/02 10:56:00;;;;;;;12.40;5.70;;;-2.80;99.90;;;;;;5042237;28;20419;-60
2023/12/02 10:58:28;;;;;;;12.33;8.73;;;-3.10;99.90;;;;;;5033503;28;20943;-61
2023/12/02 11:00:59;;;;;;;9.40;6.07;;;-3.10;99.90;;;;;;5036758;28;20459;-62
2023/12/02 11:03:36;;;;;;;8.20;6.03;;;-3.00;99.90;;;;;;5042182;28;20418;-61
2023/12/02 11:06:14;;;;;;;10.00;6.20;;;-3.00;99.90;;;;;;5037439;28;20467;-63
2023/12/02 11:08:48;;;;;;;9.47;5.47;;;-3.10;99.90;;;;;;5044386;28;20417;-62
2023/12/02 11:11:46;;;;;;;8.27;5.93;;;-3.10;99.90;;;;;;5036690;28;20437;-62
2023/12/02 11:14:20;;;;;;;12.30;6.20;;;-3.10;99.90;;;;;;5020997;28;20462;-61
2023/12/02 11:17:00;;;;;;;7.93;5.00;;;-3.20;99.90;;;;;;5030569;28;20963;-62
2023/12/02 11:19:41;;;;;;;13.30;6.03;;;-3.30;99.90;;;;;;5034789;28;20421;-61
2023/12/02 11:22:12;;;;;;;9.33;6.93;;;-3.20;99.90;;;;;;5040100;28;20437;-63
2023/12/02 11:24:44;;;;;;;14.30;6.63;;;-3.10;99.90;;;;;;5028375;28;20422;-60
2023/12/02 11:27:39;;;;;;;9.83;6.67;;;-3.20;99.90;;;;;;5030121;28;20755;-60
2023/12/02 11:30:41;;;;;;;10.10;5.33;;;-3.40;99.90;;;;;;5032947;28;20462;-63
2023/12/02 11:33:24;;;;;;;10.87;6.17;;;-3.30;99.90;;;;;;5038731;28;20485;-71
2023/12/02 11:36:05;;;;;;;9.13;6.17;;;-3.50;99.90;;;;;;5031933;28;20434;-64
2023/12/02 11:38:34;;;;;;;6.27;5.50;;;-3.50;99.90;;;;;;5037349;28;20505;-66
2023/12/02 11:41:14;;;;;;;7.90;5.13;;;-3.70;99.90;;;;;;5041038;28;20447;-64
2023/12/02 11:43:58;;;;;;;11.60;6.70;;;-3.70;99.90;;;;;;5023545;28;20484;-69
2023/12/02 11:46:33;;;;;;;14.40;6.70;;;-3.70;99.90;;;;;;5040350;28;20489;-69
2023/12/02 11:49:49;;;;;;;10.03;7.17;;;-3.40;99.90;;;;;;5045485;28;20412;-64
2023/12/02 11:52:26;;;;;;;7.10;5.60;;;-3.30;99.90;;;;;;4957591;28;20469;-71
2023/12/02 11:55:12;;;;;;;11.10;6.47;;;-3.50;99.90;;;;;;4949281;28;20417;-60
2023/12/02 11:57:44;;;;;;;7.23;5.13;;;-3.70;99.90;;;;;;5011469;28;20464;-63
2023/12/02 12:00:42;;;;;;;7.77;5.20;;;-3.40;99.90;;;;;;5044146;28;20441;-64
2023/12/02 12:03:21;;;;;;;9.90;4.80;;;-3.30;99.90;;;;;;5010072;28;20777;-63
2023/12/02 12:06:13;;;;;;;10.90;5.70;;;-3.50;99.90;;;;;;5049412;28;20455;-64
2023/12/02 12:09:15;;;;;;;8.80;5.57;;;-3.40;99.90;;;;;;5041923;28;20417;-62
2023/12/02 12:11:41;;;;;;;9.43;6.27;;;-3.40;99.90;;;;;;5010472;28;20440;-63
2023/12/02 12:14:08;;;;;;;8.77;6.50;;;-3.60;99.90;;;;;;5038710;28;20505;-62
2023/12/02 12:16:34;;;;;;;8.20;6.60;;;-3.30;99.90;;;;;;5033433;28;20457;-64
2023/12/02 12:19:00;;;;;;;11.73;6.10;;;-3.30;99.90;;;;;;5036193;28;20936;-62
2023/12/02 12:21:26;;;;;;;9.20;5.63;;;-3.30;99.90;;;;;;5036855;28;20206;-65
2023/12/02 12:23:51;;;;;;;10.47;6.40;;;-3.40;99.90;;;;;;5038446;28;20505;-65
2023/12/02 12:26:17;;;;;;;12.00;6.77;;;-3.40;99.90;;;;;;5031130;28;20202;-64
2023/12/02 12:28:43;;;;;;;10.00;5.70;;;-3.40;99.90;;;;;;5032512;28;20265;-63
2023/12/02 12:31:10;;;;;;;12.43;6.57;;;-3.40;99.90;;;;;;5032885;28;20949;-63
2023/12/02 12:33:39;;;;;;;10.00;5.87;;;-3.40;99.90;;;;;;5034544;28;20168;-60
2023/12/02 12:36:06;;;;;;;10.70;7.37;;;-3.30;99.90;;;;;;5031519;28;20422;-63
2023/12/02 12:38:31;;;;;;;10.50;6.90;;;-3.20;99.90;;;;;;5027086;28;21135;-63
2023/12/02 12:40:57;;;;;;;9.67;5.90;;;-3.20;99.90;;;;;;5037251;28;20520;-62
2023/12/02 12:43:23;;;;;;;14.30;8.60;;;-3.20;99.90;;;;;;5030956;28;20250;-61